Time;durP1;ratioP1;P1;durP2;ratioP2;P2;SDS_P1;SDS_P2;PMS_P1;PMS_P2;Temp;Humidity;BMP_temperature;BMP_pressure;BME280_temperature;BME280_humidity;BME280_pressure;Samples;Min_cycle;Max_cycle;Signal;HPM_P1;HPM_P2
2021/09/26 00:00:21;;;;;;;8.70;5.53;;;16.40;99.90;;;;;;5039546;28;20182;-85
2021/09/26 00:02:46;;;;;;;7.10;5.93;;;16.40;99.90;;;;;;5039140;28;20178;-84
2021/09/26 00:05:12;;;;;;;8.93;6.30;;;16.40;99.90;;;;;;5037383;28;20232;-85
2021/09/26 00:07:39;;;;;;;6.80;5.40;;;16.40;99.90;;;;;;5037199;28;20599;-85
2021/09/26 00:10:07;;;;;;;10.30;5.97;;;16.40;99.90;;;;;;5037494;28;20179;-85
2021/09/26 00:12:33;;;;;;;10.33;5.80;;;16.40;99.90;;;;;;5038372;28;20277;-84
2021/09/26 00:15:00;;;;;;;7.30;5.73;;;16.50;99.90;;;;;;5038938;28;20206;-85
2021/09/26 00:17:25;;;;;;;6.33;5.70;;;16.50;99.90;;;;;;5040667;28;20213;-83
2021/09/26 00:19:51;;;;;;;6.33;5.37;;;16.60;99.90;;;;;;5041519;28;20186;-85
2021/09/26 00:22:17;;;;;;;9.93;6.20;;;16.60;99.90;;;;;;5039427;28;20190;-85
2021/09/26 00:24:42;;;;;;;6.77;5.90;;;16.70;99.90;;;;;;5040872;28;20529;-85
2021/09/26 00:27:10;;;;;;;6.20;5.47;;;16.70;99.90;;;;;;5041270;28;20265;-85
2021/09/26 00:29:37;;;;;;;9.33;5.43;;;16.70;99.90;;;;;;5042077;28;20185;-85
2021/09/26 00:32:05;;;;;;;11.27;5.13;;;16.80;99.90;;;;;;5039058;28;20179;-84
2021/09/26 00:34:31;;;;;;;7.17;4.90;;;16.80;99.90;;;;;;5038536;28;20229;-85
2021/09/26 00:36:56;;;;;;;9.27;5.33;;;16.90;99.90;;;;;;5038511;28;20210;-85
2021/09/26 00:39:22;;;;;;;5.53;4.40;;;16.90;99.90;;;;;;5039204;28;20250;-85
2021/09/26 00:41:48;;;;;;;8.10;5.73;;;16.90;99.90;;;;;;5038789;28;20197;-85
2021/09/26 00:44:15;;;;;;;6.60;4.63;;;16.90;99.90;;;;;;5038878;28;20189;-85
2021/09/26 00:46:41;;;;;;;6.53;4.20;;;17.00;99.90;;;;;;5038005;28;20585;-85
2021/09/26 00:49:06;;;;;;;6.87;4.17;;;17.00;99.90;;;;;;5038658;28;20178;-86
2021/09/26 00:51:32;;;;;;;7.00;4.73;;;17.00;99.90;;;;;;5038050;28;20175;-86
2021/09/26 00:53:58;;;;;;;6.43;4.73;;;16.90;99.90;;;;;;5038668;28;20193;-84
2021/09/26 00:56:25;;;;;;;8.57;3.87;;;16.90;99.90;;;;;;5039150;28;20217;-85
2021/09/26 00:58:51;;;;;;;4.27;3.67;;;16.90;99.90;;;;;;5039450;28;20521;-86
2021/09/26 01:01:17;;;;;;;4.60;3.90;;;;;;;;;;5039545;28;20187;-85
2021/09/26 01:03:44;;;;;;;7.60;4.30;;;16.80;99.90;;;;;;5038889;28;20176;-84
2021/09/26 01:06:29;;;;;;;5.47;4.33;;;16.80;99.90;;;;;;5037926;28;20270;-85
2021/09/26 01:09:07;;;;;;;5.37;4.33;;;16.80;99.90;;;;;;5039027;28;20224;-85
2021/09/26 01:12:04;;;;;;;7.43;4.90;;;16.70;99.90;;;;;;5037730;28;20702;-84
2021/09/26 01:14:53;;;;;;;5.63;4.63;;;16.60;99.90;;;;;;5038489;28;20269;-85
2021/09/26 01:17:30;;;;;;;7.83;4.27;;;16.50;99.90;;;;;;5037240;28;20202;-85
2021/09/26 01:20:11;;;;;;;8.20;4.83;;;16.40;99.90;;;;;;5037556;28;20181;-84
2021/09/26 01:23:01;;;;;;;6.60;4.83;;;16.40;99.90;;;;;;5039103;28;20601;-85
2021/09/26 01:26:05;;;;;;;6.67;4.90;;;16.40;99.90;;;;;;5029818;28;20182;-85
2021/09/26 01:28:49;;;;;;;5.33;4.77;;;16.30;99.90;;;;;;5017612;28;20214;-85
2021/09/26 01:31:26;;;;;;;6.67;4.40;;;16.30;99.90;;;;;;5027922;28;20179;-84
2021/09/26 01:34:08;;;;;;;7.07;5.03;;;16.30;99.90;;;;;;5037428;28;20624;-85
2021/09/26 01:36:39;;;;;;;7.07;4.67;;;16.30;99.90;;;;;;5038611;28;20178;-85
2021/09/26 01:39:21;;;;;;;7.07;4.73;;;16.20;99.90;;;;;;5036961;28;20170;-85
2021/09/26 01:41:52;;;;;;;6.10;4.63;;;16.20;99.90;;;;;;5037886;28;20167;-84
2021/09/26 01:44:41;;;;;;;7.47;5.20;;;16.20;99.90;;;;;;5022908;28;20158;-85
2021/09/26 01:47:11;;;;;;;5.40;4.67;;;16.20;99.90;;;;;;5037185;28;20731;-85
2021/09/26 01:50:00;;;;;;;6.20;4.47;;;16.20;99.90;;;;;;5037436;28;20205;-85
2021/09/26 01:52:31;;;;;;;11.77;4.20;;;16.20;99.90;;;;;;5037315;28;20178;-85
2021/09/26 01:54:58;;;;;;;4.90;4.40;;;16.20;99.90;;;;;;5038143;28;20178;-85
2021/09/26 01:57:25;;;;;;;9.13;4.70;;;16.20;99.90;;;;;;5039700;28;20194;-85
2021/09/26 01:59:53;;;;;;;6.33;4.10;;;16.10;99.90;;;;;;5038536;28;20177;-85
2021/09/26 02:02:19;;;;;;;7.33;4.80;;;16.10;99.90;;;;;;5040926;28;20173;-85
2021/09/26 02:04:59;;;;;;;5.80;4.67;;;16.10;99.90;;;;;;5039080;28;20239;-85
2021/09/26 02:07:31;;;;;;;8.73;4.17;;;16.10;99.90;;;;;;5041012;28;20209;-85
2021/09/26 02:09:58;;;;;;;4.83;3.97;;;16.10;99.90;;;;;;5042989;28;20178;-85
2021/09/26 02:12:26;;;;;;;5.33;4.20;;;16.10;99.90;;;;;;5037520;28;20177;-85
2021/09/26 02:14:52;;;;;;;6.40;3.90;;;16.10;99.90;;;;;;5042391;28;20189;-85
2021/09/26 02:17:20;;;;;;;4.97;4.13;;;16.10;99.90;;;;;;5043121;28;20206;-85
2021/09/26 02:19:47;;;;;;;8.17;4.43;;;16.10;99.90;;;;;;5039048;28;20170;-87
2021/09/26 02:22:13;;;;;;;5.53;4.33;;;16.10;99.90;;;;;;5018944;28;20178;-85
2021/09/26 02:24:39;;;;;;;8.77;4.80;;;16.10;99.90;;;;;;5034505;28;20237;-84
2021/09/26 02:27:06;;;;;;;6.83;4.37;;;16.00;99.90;;;;;;5035029;28;20293;-84
2021/09/26 02:29:35;;;;;;;5.30;4.37;;;16.00;99.90;;;;;;5033723;28;20206;-85
2021/09/26 02:32:01;;;;;;;5.50;4.03;;;16.00;99.90;;;;;;5033413;28;20203;-85
2021/09/26 02:34:27;;;;;;;5.03;4.40;;;16.00;99.90;;;;;;5035722;28;20190;-85
2021/09/26 02:36:53;;;;;;;6.53;3.87;;;16.00;99.90;;;;;;5038149;28;20198;-85
2021/09/26 02:39:19;;;;;;;6.40;3.93;;;16.00;99.90;;;;;;5037674;28;20267;-85
2021/09/26 02:42:12;;;;;;;5.83;4.03;;;16.00;99.90;;;;;;5036938;28;20176;-84
2021/09/26 02:44:55;;;;;;;4.83;4.07;;;16.00;99.90;;;;;;5038665;28;20279;-85
2021/09/26 02:47:24;;;;;;;5.67;3.80;;;16.00;99.90;;;;;;5018307;28;20242;-85
2021/09/26 02:49:52;;;;;;;6.20;4.40;;;16.00;99.90;;;;;;5018401;28;20198;-84
2021/09/26 02:52:19;;;;;;;6.13;4.03;;;16.00;99.90;;;;;;5038538;28;20174;-85
2021/09/26 02:54:45;;;;;;;5.50;3.53;;;16.00;99.90;;;;;;5039627;28;20238;-85
2021/09/26 02:57:12;;;;;;;7.20;3.40;;;16.00;99.90;;;;;;5037385;28;20251;-85
2021/09/26 02:59:38;;;;;;;8.47;3.50;;;16.00;99.90;;;;;;5039746;28;20197;-84
2021/09/26 03:02:05;;;;;;;6.60;3.53;;;16.00;99.90;;;;;;5037031;28;20189;-85
2021/09/26 03:04:30;;;;;;;4.73;3.83;;;16.00;99.90;;;;;;5039982;28;20271;-85
2021/09/26 03:06:56;;;;;;;5.93;3.60;;;16.00;99.90;;;;;;5042703;28;20688;-85
2021/09/26 03:09:23;;;;;;;5.83;3.83;;;16.10;99.90;;;;;;5041017;28;20190;-85
2021/09/26 03:11:48;;;;;;;5.87;3.77;;;15.90;99.90;;;;;;5042799;28;20228;-85
2021/09/26 03:14:14;;;;;;;6.77;3.20;;;15.90;99.90;;;;;;5040922;28;20598;-85
2021/09/26 03:16:40;;;;;;;9.47;3.60;;;15.90;99.90;;;;;;5041470;28;20202;-85
2021/09/26 03:19:06;;;;;;;4.47;3.30;;;15.90;99.90;;;;;;5042324;28;20186;-85
2021/09/26 03:21:31;;;;;;;4.63;3.53;;;15.80;99.90;;;;;;5042533;28;20182;-85
2021/09/26 03:23:58;;;;;;;5.30;3.70;;;15.80;99.90;;;;;;5042881;28;20190;-85
2021/09/26 03:26:24;;;;;;;5.93;3.83;;;15.60;99.90;;;;;;5043548;28;20288;-85
2021/09/26 03:28:51;;;;;;;4.10;3.50;;;15.70;99.90;;;;;;5057280;28;20172;-84
2021/09/26 03:31:18;;;;;;;6.23;3.77;;;15.60;99.90;;;;;;5058094;28;20202;-85
2021/09/26 03:33:44;;;;;;;8.73;3.90;;;15.50;99.90;;;;;;5054758;28;20179;-85
2021/09/26 03:36:10;;;;;;;6.07;3.73;;;15.50;99.90;;;;;;5041782;28;20253;-84
2021/09/26 03:38:36;;;;;;;5.17;3.57;;;15.50;99.90;;;;;;5040786;28;20210;-85
2021/09/26 03:41:02;;;;;;;6.17;3.50;;;15.40;99.90;;;;;;5040221;28;20277;-85
2021/09/26 03:43:28;;;;;;;9.23;4.30;;;15.40;99.90;;;;;;5040205;28;20277;-84
2021/09/26 03:45:54;;;;;;;5.43;3.60;;;15.30;99.90;;;;;;5041462;28;20202;-85
2021/09/26 03:48:21;;;;;;;7.47;3.30;;;15.30;99.90;;;;;;5042115;28;20540;-85
2021/09/26 03:50:48;;;;;;;5.07;3.30;;;15.30;99.90;;;;;;5040220;28;20166;-85
2021/09/26 03:53:15;;;;;;;5.73;3.50;;;15.30;99.90;;;;;;5040976;28;20578;-85
2021/09/26 03:55:40;;;;;;;6.73;3.77;;;15.30;99.90;;;;;;5041907;28;20177;-85
2021/09/26 03:58:06;;;;;;;5.93;3.60;;;15.30;99.90;;;;;;5041867;28;20202;-85
2021/09/26 04:00:32;;;;;;;6.30;3.23;;;15.20;99.90;;;;;;5043077;28;20186;-85
2021/09/26 04:02:58;;;;;;;4.13;3.17;;;15.10;99.90;;;;;;5044938;28;20703;-85
2021/09/26 04:05:24;;;;;;;7.20;3.70;;;15.10;99.90;;;;;;5038920;28;20181;-85
2021/09/26 04:07:49;;;;;;;7.80;3.97;;;15.10;99.90;;;;;;5039231;28;20259;-85
2021/09/26 04:10:15;;;;;;;10.70;3.77;;;15.10;99.90;;;;;;5040419;28;20555;-85
2021/09/26 04:12:41;;;;;;;4.73;4.27;;;15.10;99.90;;;;;;5039465;28;20170;-84
2021/09/26 04:15:08;;;;;;;5.53;4.70;;;15.00;99.90;;;;;;5038090;28;20204;-85
2021/09/26 04:17:34;;;;;;;6.73;4.33;;;15.00;99.90;;;;;;5038052;28;20197;-84
2021/09/26 04:20:00;;;;;;;7.20;4.33;;;14.90;99.90;;;;;;5039531;28;20173;-84
2021/09/26 04:22:26;;;;;;;5.37;3.73;;;14.90;99.90;;;;;;5037552;28;20223;-85
2021/09/26 04:24:52;;;;;;;6.60;3.80;;;14.90;99.90;;;;;;5039147;28;20229;-85
2021/09/26 04:27:18;;;;;;;5.97;4.10;;;14.90;99.90;;;;;;5037482;28;20221;-85
2021/09/26 04:29:44;;;;;;;5.90;3.67;;;14.90;99.90;;;;;;5038702;28;20170;-85
2021/09/26 04:32:10;;;;;;;6.97;4.80;;;14.80;99.90;;;;;;5037373;28;20170;-85
2021/09/26 04:34:36;;;;;;;8.67;4.03;;;14.80;99.90;;;;;;5037123;28;20285;-85
2021/09/26 04:37:03;;;;;;;5.87;3.80;;;14.80;99.90;;;;;;5037256;28;20203;-85
2021/09/26 04:39:29;;;;;;;9.87;3.77;;;14.80;99.90;;;;;;5036932;28;20265;-85
2021/09/26 04:41:55;;;;;;;5.10;3.83;;;14.80;99.90;;;;;;5038135;28;20187;-84
2021/09/26 04:44:20;;;;;;;8.33;3.63;;;14.80;99.90;;;;;;5036453;28;20727;-82
2021/09/26 04:46:46;;;;;;;5.40;3.10;;;14.80;99.90;;;;;;5036720;28;20297;-86
2021/09/26 04:49:12;;;;;;;10.00;4.30;;;14.80;99.90;;;;;;5037954;28;20257;-86
2021/09/26 04:51:38;;;;;;;6.37;3.40;;;14.80;99.90;;;;;;5041116;28;20182;-86
2021/09/26 04:54:04;;;;;;;10.83;4.00;;;14.80;99.90;;;;;;5042718;28;20174;-85
2021/09/26 04:56:30;;;;;;;3.80;3.00;;;14.70;99.90;;;;;;5041838;28;20178;-86
2021/09/26 04:58:56;;;;;;;6.40;3.60;;;;;;;;;;5042690;28;20240;-86
2021/09/26 05:01:22;;;;;;;10.20;3.40;;;14.60;99.90;;;;;;5043784;28;20182;-86
2021/09/26 05:03:47;;;;;;;10.40;3.33;;;14.70;99.90;;;;;;5043961;28;20190;-87
2021/09/26 05:06:14;;;;;;;8.13;3.57;;;14.60;99.90;;;;;;5042997;28;20210;-86
2021/09/26 05:08:43;;;;;;;7.03;2.93;;;14.60;99.90;;;;;;5041749;28;20262;-86
2021/09/26 05:11:09;;;;;;;9.67;3.97;;;14.60;99.90;;;;;;5042359;28;20210;-86
2021/09/26 05:13:35;;;;;;;6.27;3.07;;;14.70;99.90;;;;;;5044032;28;20182;-86
2021/09/26 05:16:00;;;;;;;6.87;3.53;;;14.60;99.90;;;;;;5041945;28;20185;-87
2021/09/26 05:18:26;;;;;;;6.90;3.80;;;14.60;99.90;;;;;;5040764;28;20232;-88
2021/09/26 05:20:53;;;;;;;5.97;3.53;;;14.60;99.90;;;;;;5041908;28;20178;-87
2021/09/26 05:23:20;;;;;;;5.10;3.53;;;14.70;99.90;;;;;;5046149;28;20171;-86
2021/09/26 05:25:46;;;;;;;6.73;4.00;;;14.70;99.90;;;;;;5055632;28;20179;-86
2021/09/26 05:28:12;;;;;;;8.77;3.60;;;14.70;99.90;;;;;;5056189;28;20230;-86
2021/09/26 05:30:38;;;;;;;6.97;3.70;;;14.70;99.90;;;;;;5046139;28;20190;-86
2021/09/26 05:33:03;;;;;;;8.80;3.90;;;14.70;99.90;;;;;;5040321;28;20658;-87
2021/09/26 05:35:30;;;;;;;5.87;3.07;;;14.70;99.90;;;;;;5040631;28;20193;-86
2021/09/26 05:37:57;;;;;;;5.87;3.30;;;14.70;99.90;;;;;;5039660;28;20249;-86
2021/09/26 05:40:23;;;;;;;6.03;3.20;;;14.60;99.90;;;;;;5040883;28;20740;-86
2021/09/26 05:42:49;;;;;;;5.93;2.90;;;14.60;99.90;;;;;;5039868;28;20182;-86
2021/09/26 05:45:15;;;;;;;6.87;3.53;;;14.60;99.90;;;;;;5039433;28;20205;-86
2021/09/26 05:47:40;;;;;;;7.03;3.40;;;14.70;99.90;;;;;;5039146;28;20206;-87
2021/09/26 05:50:07;;;;;;;5.23;3.20;;;14.70;99.90;;;;;;5041806;28;20181;-86
2021/09/26 05:52:32;;;;;;;7.93;3.57;;;14.70;99.90;;;;;;5041106;28;20254;-86
2021/09/26 05:54:58;;;;;;;7.50;3.60;;;14.70;99.90;;;;;;5041538;28;20186;-83
2021/09/26 05:57:24;;;;;;;6.73;3.43;;;14.70;99.90;;;;;;5046057;28;20194;-86
2021/09/26 05:59:49;;;;;;;10.93;3.43;;;14.70;99.90;;;;;;5023595;28;20197;-87
2021/09/26 06:02:22;;;;;;;8.07;3.30;;;14.70;99.90;;;;;;5039656;28;20190;-87
2021/09/26 06:04:49;;;;;;;10.27;3.50;;;14.70;99.90;;;;;;5038280;28;20202;-88
2021/09/26 06:07:14;;;;;;;5.97;3.53;;;14.70;99.90;;;;;;5037468;28;20213;-88
2021/09/26 06:09:41;;;;;;;8.60;3.10;;;14.70;99.90;;;;;;5039372;28;20175;-85
2021/09/26 06:12:07;;;;;;;8.17;3.07;;;14.70;99.90;;;;;;5037078;28;20212;-82
2021/09/26 06:14:33;;;;;;;7.67;3.30;;;14.70;99.90;;;;;;5037566;28;20206;-84
2021/09/26 06:16:58;;;;;;;7.10;3.53;;;14.70;99.90;;;;;;5036958;28;20256;-83
2021/09/26 06:19:24;;;;;;;6.07;3.20;;;14.70;99.90;;;;;;5036784;28;20709;-84
2021/09/26 06:21:50;;;;;;;5.87;3.50;;;14.70;99.90;;;;;;5033463;28;20248;-85
2021/09/26 06:24:15;;;;;;;4.57;3.30;;;14.80;99.90;;;;;;5033568;28;20626;-81
2021/09/26 06:26:41;;;;;;;9.13;3.40;;;14.80;99.90;;;;;;5039610;28;20214;-82
2021/09/26 06:29:08;;;;;;;7.67;3.77;;;14.80;99.90;;;;;;5038150;28;20190;-82
2021/09/26 06:31:33;;;;;;;7.40;3.40;;;14.90;99.90;;;;;;5040646;28;20702;-82
2021/09/26 06:33:59;;;;;;;6.30;3.10;;;15.00;99.90;;;;;;5040912;28;20249;-81
2021/09/26 06:36:25;;;;;;;7.07;3.17;;;15.10;99.90;;;;;;5043468;28;20186;-85
2021/09/26 06:38:52;;;;;;;6.33;3.10;;;15.20;99.90;;;;;;5045638;28;20182;-81
2021/09/26 06:41:18;;;;;;;6.57;3.57;;;15.30;99.90;;;;;;5051136;28;20186;-82
2021/09/26 06:43:45;;;;;;;6.67;2.90;;;15.40;99.90;;;;;;5037225;28;20190;-84
2021/09/26 06:46:11;;;;;;;6.93;3.37;;;15.60;99.90;;;;;;5020062;28;20186;-84
2021/09/26 06:48:37;;;;;;;7.40;3.10;;;15.60;99.90;;;;;;5037351;28;20220;-82
2021/09/26 06:51:02;;;;;;;6.80;3.53;;;15.70;99.90;;;;;;5035898;28;20224;-81
2021/09/26 06:53:28;;;;;;;5.77;3.20;;;15.80;99.90;;;;;;5037747;28;20186;-80
2021/09/26 06:55:54;;;;;;;10.70;3.10;;;15.90;99.90;;;;;;5037628;28;20178;-80
2021/09/26 06:58:20;;;;;;;5.23;3.00;;;16.00;99.90;;;;;;5036064;28;20198;-80
2021/09/26 07:00:45;;;;;;;5.47;3.10;;;16.10;99.90;;;;;;5035974;28;20181;-80
2021/09/26 07:03:14;;;;;;;8.60;3.47;;;16.10;99.90;;;;;;5036013;28;20178;-81
2021/09/26 07:05:39;;;;;;;7.07;3.07;;;16.20;99.90;;;;;;5037772;28;20181;-83
2021/09/26 07:08:05;;;;;;;6.57;2.97;;;16.20;99.90;;;;;;5040550;28;20218;-81
2021/09/26 07:10:31;;;;;;;4.77;3.37;;;16.30;99.90;;;;;;5033584;28;20178;-81
2021/09/26 07:12:57;;;;;;;6.23;3.23;;;16.30;99.90;;;;;;5044830;28;20182;-80
2021/09/26 07:15:22;;;;;;;7.00;3.07;;;16.30;99.90;;;;;;5050001;28;20193;-82
2021/09/26 07:17:48;;;;;;;5.10;3.00;;;16.30;99.90;;;;;;5046609;28;20206;-80
2021/09/26 07:20:14;;;;;;;5.13;3.13;;;16.40;99.90;;;;;;5036220;28;20586;-84
2021/09/26 07:22:40;;;;;;;11.73;3.37;;;16.40;99.90;;;;;;5035163;28;20186;-81
2021/09/26 07:25:07;;;;;;;7.70;2.90;;;16.50;99.90;;;;;;5036565;28;20182;-81
2021/09/26 07:27:32;;;;;;;6.70;2.83;;;16.60;99.90;;;;;;5035514;28;20218;-81
2021/09/26 07:29:58;;;;;;;7.00;3.23;;;16.70;99.90;;;;;;5035376;28;20254;-81
2021/09/26 07:32:24;;;;;;;7.80;2.70;;;16.90;99.90;;;;;;5033697;28;20180;-81
2021/09/26 07:34:51;;;;;;;4.47;2.90;;;17.00;99.90;;;;;;5035850;28;20198;-81
2021/09/26 07:37:17;;;;;;;6.50;3.30;;;17.20;99.90;;;;;;5033941;28;20206;-80
2021/09/26 07:39:42;;;;;;;4.73;2.43;;;17.30;99.90;;;;;;5037395;28;20193;-83
2021/09/26 07:42:08;;;;;;;10.80;2.87;;;17.30;99.90;;;;;;5037159;28;20222;-82
2021/09/26 07:44:34;;;;;;;4.43;2.50;;;17.50;99.90;;;;;;5036343;28;20194;-80
2021/09/26 07:47:00;;;;;;;4.40;2.13;;;17.70;99.90;;;;;;5035869;28;20222;-82
2021/09/26 07:49:25;;;;;;;6.53;2.93;;;18.00;99.90;;;;;;5037571;28;20184;-82
2021/09/26 07:51:51;;;;;;;6.03;2.57;;;18.40;99.90;;;;;;5041130;28;20182;-81
2021/09/26 07:54:16;;;;;;;7.77;2.50;;;19.00;99.90;;;;;;5050671;28;20214;-80
2021/09/26 07:56:46;;;;;;;7.57;2.93;;;19.60;99.90;;;;;;5046426;28;20274;-82
2021/09/26 07:59:12;;;;;;;11.37;2.77;;;20.20;99.90;;;;;;5052690;28;20214;-82
2021/09/26 08:01:37;;;;;;;7.43;2.50;;;21.00;99.90;;;;;;5043049;28;20283;-82
2021/09/26 08:04:03;;;;;;;8.47;3.03;;;21.60;99.90;;;;;;5037976;28;20552;-82
2021/09/26 08:06:29;;;;;;;9.00;2.57;;;22.20;99.90;;;;;;5038169;28;20212;-83
2021/09/26 08:08:56;;;;;;;9.23;2.60;;;22.80;99.90;;;;;;5038459;28;20174;-84
2021/09/26 08:11:21;;;;;;;5.53;2.50;;;23.40;99.90;;;;;;5039148;28;20539;-81
2021/09/26 08:13:47;;;;;;;5.30;2.60;;;24.00;99.90;;;;;;5037837;28;20178;-80
2021/09/26 08:16:14;;;;;;;4.80;2.70;;;24.30;99.90;;;;;;5039958;28;20217;-81
2021/09/26 08:18:39;;;;;;;5.70;2.90;;;24.70;99.90;;;;;;5038408;28;20267;-79
2021/09/26 08:21:05;;;;;;;5.17;2.43;;;24.70;99.90;;;;;;5037752;28;20575;-80
2021/09/26 08:23:31;;;;;;;6.13;2.90;;;24.50;99.90;;;;;;5037859;28;20660;-80
2021/09/26 08:25:56;;;;;;;9.73;2.77;;;24.50;99.90;;;;;;5037404;28;20185;-80
2021/09/26 08:28:23;;;;;;;4.07;2.50;;;24.90;99.90;;;;;;5037411;28;20311;-81
2021/09/26 08:30:49;;;;;;;5.63;2.60;;;24.80;99.90;;;;;;5040092;28;20173;-80
2021/09/26 08:33:15;;;;;;;7.43;3.17;;;24.30;99.90;;;;;;5039187;28;20178;-80
2021/09/26 08:35:41;;;;;;;5.43;2.53;;;23.70;99.90;;;;;;5037672;28;20185;-79
2021/09/26 08:38:06;;;;;;;9.37;3.07;;;23.40;99.90;;;;;;5039006;28;20222;-80
2021/09/26 08:40:32;;;;;;;4.23;2.70;;;23.60;99.90;;;;;;5039727;28;20182;-80
2021/09/26 08:42:58;;;;;;;8.23;2.53;;;24.00;99.90;;;;;;5038345;28;20885;-80
2021/09/26 08:45:24;;;;;;;6.27;2.47;;;24.20;99.90;;;;;;5039553;28;20174;-80
2021/09/26 08:47:51;;;;;;;7.57;2.77;;;24.50;99.90;;;;;;5037644;28;20223;-80
2021/09/26 08:50:19;;;;;;;10.00;3.20;;;24.90;99.90;;;;;;5041489;28;20178;-80
2021/09/26 08:52:46;;;;;;;8.40;2.93;;;25.30;99.90;;;;;;5044138;28;20180;-82
2021/09/26 08:55:13;;;;;;;8.63;3.13;;;25.70;99.90;;;;;;5047609;28;20212;-81
2021/09/26 08:57:39;;;;;;;6.77;2.80;;;25.60;99.90;;;;;;5046775;28;20206;-78
2021/09/26 09:00:09;;;;;;;11.00;2.90;;;25.50;99.90;;;;;;5043315;28;20198;-83
2021/09/26 09:02:35;;;;;;;7.40;2.87;;;25.70;99.90;;;;;;5017044;28;20278;-81
2021/09/26 09:05:01;;;;;;;4.77;2.60;;;25.60;99.90;;;;;;5029929;28;20187;-80
2021/09/26 09:07:26;;;;;;;5.80;2.70;;;25.80;99.90;;;;;;5035392;28;20586;-80
2021/09/26 09:09:57;;;;;;;6.20;2.73;;;25.70;99.90;;;;;;5037381;28;20636;-79
2021/09/26 09:12:26;;;;;;;4.20;2.30;;;25.80;99.90;;;;;;5039104;28;20179;-81
2021/09/26 09:14:56;;;;;;;9.80;3.80;;;26.10;99.90;;;;;;5039605;28;20194;-81
2021/09/26 09:17:33;;;;;;;4.97;2.60;;;26.30;99.90;;;;;;5042472;28;20223;-79
2021/09/26 09:20:19;;;;;;;5.33;2.67;;;26.50;99.90;;;;;;5042994;28;20163;-79
2021/09/26 09:22:48;;;;;;;8.70;2.90;;;26.50;99.90;;;;;;5037987;28;20210;-79
2021/09/26 09:25:34;;;;;;;6.10;2.60;;;26.80;99.90;;;;;;5036930;28;20552;-80
2021/09/26 09:28:01;;;;;;;6.53;2.40;;;26.70;99.90;;;;;;5038125;28;20250;-80
2021/09/26 09:30:33;;;;;;;4.80;3.17;;;26.50;99.90;;;;;;5038047;28;20183;-80
2021/09/26 09:33:00;;;;;;;5.17;2.63;;;26.50;99.90;;;;;;5037301;28;20204;-80
2021/09/26 09:35:28;;;;;;;3.77;2.50;;;26.70;99.90;;;;;;5035699;28;20184;-80
2021/09/26 09:37:56;;;;;;;9.70;3.00;;;26.90;99.90;;;;;;5037444;28;20677;-79
2021/09/26 09:40:21;;;;;;;7.07;2.70;;;27.00;99.90;;;;;;5035554;28;20231;-79
2021/09/26 09:42:50;;;;;;;7.07;2.43;;;26.40;99.90;;;;;;5036847;28;20244;-78
2021/09/26 09:45:33;;;;;;;6.73;3.13;;;25.80;99.90;;;;;;5037577;28;20183;-79
2021/09/26 09:48:04;;;;;;;6.60;3.00;;;25.30;99.90;;;;;;5019065;28;20587;-78
2021/09/26 09:50:40;;;;;;;7.17;2.93;;;25.00;99.90;;;;;;5019533;28;20278;-79
2021/09/26 09:53:08;;;;;;;6.00;2.70;;;24.80;99.90;;;;;;5018398;28;20222;-79
2021/09/26 09:55:36;;;;;;;8.83;3.60;;;24.60;99.90;;;;;;5018691;28;20179;-79
2021/09/26 09:58:34;;;;;;;4.90;2.67;;;24.60;99.90;;;;;;5016792;28;20213;-80
2021/09/26 10:01:01;;;;;;;5.13;3.37;;;24.90;99.90;;;;;;5029118;28;20191;-80
2021/09/26 10:03:47;;;;;;;7.10;3.40;;;25.20;99.90;;;;;;5017565;28;20511;-80
2021/09/26 10:06:19;;;;;;;7.30;3.37;;;25.20;99.90;;;;;;5032094;28;20186;-79
2021/09/26 10:08:45;;;;;;;9.53;3.90;;;25.20;99.90;;;;;;5038700;28;20245;-79
2021/09/26 10:11:11;;;;;;;6.47;3.63;;;25.40;99.90;;;;;;5039347;28;20190;-82
2021/09/26 10:13:37;;;;;;;8.80;3.60;;;25.60;99.90;;;;;;5036741;28;20185;-80
2021/09/26 10:16:04;;;;;;;5.33;3.20;;;26.30;99.90;;;;;;5036869;28;20632;-79
2021/09/26 10:18:31;;;;;;;3.77;3.30;;;26.70;99.90;;;;;;5038804;28;20659;-81
2021/09/26 10:20:58;;;;;;;7.90;3.47;;;27.00;99.90;;;;;;5036993;28;20348;-79
2021/09/26 10:23:23;;;;;;;8.80;3.40;;;27.10;99.90;;;;;;5036413;28;20178;-80
2021/09/26 10:25:49;;;;;;;5.03;3.30;;;27.20;99.90;;;;;;5036077;28;20659;-80
2021/09/26 10:28:16;;;;;;;7.97;3.50;;;27.50;99.90;;;;;;5038209;28;20225;-80
2021/09/26 10:30:44;;;;;;;5.77;3.80;;;27.30;99.90;;;;;;5032143;28;20185;-80
2021/09/26 10:33:11;;;;;;;5.50;3.33;;;27.30;99.90;;;;;;5046849;28;20183;-81
2021/09/26 10:35:38;;;;;;;6.80;3.87;;;27.10;99.90;;;;;;5047686;28;20275;-80
2021/09/26 10:38:10;;;;;;;8.87;3.70;;;27.00;99.90;;;;;;5050517;28;20211;-80
2021/09/26 10:40:37;;;;;;;6.93;3.83;;;26.80;99.90;;;;;;5050923;28;20176;-80
2021/09/26 10:43:22;;;;;;;5.00;3.20;;;27.10;99.90;;;;;;5041569;28;20191;-80
2021/09/26 10:45:48;;;;;;;5.33;3.73;;;26.70;99.90;;;;;;5024252;28;20187;-81
2021/09/26 10:48:15;;;;;;;6.43;3.60;;;26.80;99.90;;;;;;5040289;28;20216;-81
2021/09/26 10:50:42;;;;;;;8.73;4.20;;;26.80;99.90;;;;;;5038607;28;20182;-80
2021/09/26 10:53:13;;;;;;;4.17;3.13;;;26.80;99.90;;;;;;5036900;28;20638;-81
2021/09/26 10:55:43;;;;;;;5.57;3.50;;;26.80;99.90;;;;;;5035929;28;20176;-81
2021/09/26 10:58:14;;;;;;;8.83;3.80;;;26.90;99.90;;;;;;5036313;28;20238;-79
2021/09/26 11:00:50;;;;;;;6.87;3.77;;;26.90;99.90;;;;;;5038589;28;20175;-79
2021/09/26 11:03:19;;;;;;;7.50;3.50;;;25.90;99.90;;;;;;5031520;28;20231;-80
2021/09/26 11:05:46;;;;;;;5.60;4.13;;;24.90;99.90;;;;;;5038606;28;20182;-81
2021/09/26 11:08:42;;;;;;;6.53;4.27;;;24.10;99.90;;;;;;5036702;28;20214;-79
2021/09/26 11:11:09;;;;;;;6.47;4.13;;;23.40;99.90;;;;;;5035033;28;20301;-80
2021/09/26 11:13:37;;;;;;;4.27;3.87;;;22.90;99.90;;;;;;5037596;28;20181;-82
2021/09/26 11:16:04;;;;;;;6.17;4.40;;;22.90;99.90;;;;;;5038149;28;20186;-81
2021/09/26 11:18:45;;;;;;;5.47;4.10;;;22.70;99.90;;;;;;5037156;28;20200;-84
2021/09/26 11:21:39;;;;;;;5.40;4.10;;;22.60;99.90;;;;;;5039255;28;20185;-81
2021/09/26 11:24:26;;;;;;;7.10;4.10;;;22.70;99.90;;;;;;5041435;28;20224;-81
2021/09/26 11:26:58;;;;;;;4.93;4.47;;;22.70;99.90;;;;;;5045206;28;20214;-80
2021/09/26 11:29:28;;;;;;;5.03;4.07;;;22.70;99.90;;;;;;5043577;28;20229;-81
2021/09/26 11:31:54;;;;;;;5.60;4.37;;;22.70;99.90;;;;;;5042961;28;20202;-81
2021/09/26 11:34:44;;;;;;;5.90;4.60;;;22.90;99.90;;;;;;5044093;28;20176;-81
2021/09/26 11:37:12;;;;;;;4.60;4.10;;;23.30;99.90;;;;;;5043747;28;20204;-81
2021/09/26 11:39:39;;;;;;;6.57;3.57;;;23.90;99.90;;;;;;5044919;28;20260;-81
2021/09/26 11:42:30;;;;;;;7.00;3.90;;;25.00;99.90;;;;;;5044624;28;20178;-82
2021/09/26 11:44:57;;;;;;;4.67;3.63;;;26.40;99.90;;;;;;5044152;28;20179;-82
2021/09/26 11:47:23;;;;;;;5.03;3.40;;;27.50;99.90;;;;;;5042509;28;20217;-82
2021/09/26 11:49:49;;;;;;;2.97;2.77;;;27.80;99.90;;;;;;5041841;28;20181;-82
2021/09/26 11:52:15;;;;;;;3.77;3.17;;;27.40;99.90;;;;;;5043105;28;20221;-80
2021/09/26 11:54:43;;;;;;;2.80;2.60;;;26.50;99.90;;;;;;5044987;28;20169;-79
2021/09/26 11:57:12;;;;;;;4.90;3.00;;;26.50;99.90;;;;;;5047283;28;20257;-79
2021/09/26 11:59:40;;;;;;;5.67;2.90;;;26.50;99.90;;;;;;5048993;28;20533;-79
2021/09/26 12:02:11;;;;;;;3.00;2.70;;;26.50;99.90;;;;;;5039367;28;20189;-79
2021/09/26 12:04:37;;;;;;;2.60;2.40;;;26.10;99.90;;;;;;5040317;28;20192;-79
2021/09/26 12:07:04;;;;;;;3.87;2.70;;;25.60;99.90;;;;;;5041968;28;20213;-80
2021/09/26 12:09:33;;;;;;;3.60;2.40;;;25.10;99.90;;;;;;5041957;28;20181;-82
2021/09/26 12:11:59;;;;;;;3.70;3.10;;;24.40;99.90;;;;;;5040921;28;20580;-79
2021/09/26 12:14:30;;;;;;;3.53;3.07;;;24.30;99.90;;;;;;5043480;28;20522;-78
2021/09/26 12:17:04;;;;;;;3.40;2.70;;;24.30;99.90;;;;;;5044780;28;20211;-79
2021/09/26 12:19:30;;;;;;;3.23;2.80;;;24.40;99.90;;;;;;5045248;28;20233;-79
2021/09/26 12:22:02;;;;;;;3.53;3.10;;;24.70;99.90;;;;;;5040324;28;20180;-79
2021/09/26 12:24:38;;;;;;;4.37;3.73;;;25.00;99.90;;;;;;5041296;28;20164;-79
2021/09/26 12:27:27;;;;;;;4.00;3.60;;;25.30;99.90;;;;;;5040651;28;20763;-79
2021/09/26 12:29:57;;;;;;;3.73;3.33;;;25.50;99.90;;;;;;5041212;28;20175;-79
2021/09/26 12:32:30;;;;;;;6.63;3.73;;;25.60;99.90;;;;;;5040636;28;20189;-79
2021/09/26 12:34:58;;;;;;;5.27;3.70;;;25.60;99.90;;;;;;5040132;28;20184;-78
2021/09/26 12:37:28;;;;;;;4.00;3.60;;;25.50;99.90;;;;;;5040698;28;20208;-80
2021/09/26 12:39:57;;;;;;;4.83;3.90;;;25.50;99.90;;;;;;5041495;28;20184;-80
2021/09/26 12:42:30;;;;;;;4.13;3.73;;;25.30;99.90;;;;;;5039988;28;20665;-79
2021/09/26 12:44:56;;;;;;;4.00;3.60;;;25.20;99.90;;;;;;5039064;28;20186;-79
2021/09/26 12:47:29;;;;;;;6.70;4.07;;;25.30;99.90;;;;;;5038077;28;20211;-79
2021/09/26 12:49:55;;;;;;;4.17;3.87;;;25.00;99.90;;;;;;5037409;28;20176;-79
2021/09/26 12:52:24;;;;;;;5.27;4.03;;;24.90;99.90;;;;;;5038958;28;20192;-79
2021/09/26 12:54:59;;;;;;;5.60;4.40;;;24.40;99.90;;;;;;5040635;28;20174;-79